sensor_id;sensor_type;location;lat;lon;timestamp;P1;durP1;ratioP1;P2;durP2;ratioP2
41709;SDS011;59402;48.396;-4.472;2023-07-08T00:00:24;8.48;;;4.70;;
41709;SDS011;59402;48.396;-4.472;2023-07-08T00:02:51;8.40;;;3.95;;
41709;SDS011;59402;48.396;-4.472;2023-07-08T00:05:17;11.82;;;3.95;;
41709;SDS011;59402;48.396;-4.472;2023-07-08T00:07:43;9.83;;;4.23;;
41709;SDS011;59402;48.396;-4.472;2023-07-08T00:10:20;9.43;;;3.80;;
41709;SDS011;59402;48.396;-4.472;2023-07-08T00:12:47;12.75;;;4.65;;
41709;SDS011;59402;48.396;-4.472;2023-07-08T00:15:13;8.38;;;3.28;;
41709;SDS011;59402;48.396;-4.472;2023-07-08T00:17:38;12.25;;;3.97;;
41709;SDS011;59402;48.396;-4.472;2023-07-08T00:22:35;12.65;;;3.85;;
41709;SDS011;59402;48.396;-4.472;2023-07-08T00:25:01;11.88;;;3.90;;
41709;SDS011;59402;48.396;-4.472;2023-07-08T00:27:26;10.77;;;4.10;;
41709;SDS011;59402;48.396;-4.472;2023-07-08T00:29:51;10.32;;;3.33;;
41709;SDS011;59402;48.396;-4.472;2023-07-08T00:32:17;11.88;;;3.83;;
41709;SDS011;59402;48.396;-4.472;2023-07-08T00:34:42;9.32;;;3.58;;
41709;SDS011;59402;48.396;-4.472;2023-07-08T00:37:09;7.80;;;3.80;;
41709;SDS011;59402;48.396;-4.472;2023-07-08T00:39:35;8.80;;;4.05;;
41709;SDS011;59402;48.396;-4.472;2023-07-08T00:42:01;8.35;;;3.25;;
41709;SDS011;59402;48.396;-4.472;2023-07-08T00:44:27;9.88;;;3.60;;
41709;SDS011;59402;48.396;-4.472;2023-07-08T00:47:11;10.25;;;3.80;;
41709;SDS011;59402;48.396;-4.472;2023-07-08T00:49:41;12.02;;;3.63;;
41709;SDS011;59402;48.396;-4.472;2023-07-08T00:55:04;15.85;;;4.22;;
41709;SDS011;59402;48.396;-4.472;2023-07-08T00:57:32;12.52;;;3.50;;
41709;SDS011;59402;48.396;-4.472;2023-07-08T01:00:03;9.55;;;3.45;;
41709;SDS011;59402;48.396;-4.472;2023-07-08T01:02:29;13.45;;;4.10;;
41709;SDS011;59402;48.396;-4.472;2023-07-08T01:05:06;8.95;;;3.55;;
41709;SDS011;59402;48.396;-4.472;2023-07-08T01:07:37;10.77;;;3.55;;
41709;SDS011;59402;48.396;-4.472;2023-07-08T01:10:04;11.77;;;3.42;;
41709;SDS011;59402;48.396;-4.472;2023-07-08T01:12:37;13.13;;;3.63;;
41709;SDS011;59402;48.396;-4.472;2023-07-08T01:15:05;13.90;;;3.83;;
41709;SDS011;59402;48.396;-4.472;2023-07-08T01:17:31;11.55;;;3.50;;
41709;SDS011;59402;48.396;-4.472;2023-07-08T01:19:58;10.32;;;3.47;;
41709;SDS011;59402;48.396;-4.472;2023-07-08T01:22:23;9.95;;;3.10;;
41709;SDS011;59402;48.396;-4.472;2023-07-08T01:24:49;9.52;;;3.67;;
41709;SDS011;59402;48.396;-4.472;2023-07-08T01:27:15;9.60;;;3.55;;
41709;SDS011;59402;48.396;-4.472;2023-07-08T01:29:41;10.82;;;3.58;;
41709;SDS011;59402;48.396;-4.472;2023-07-08T01:32:09;11.90;;;3.40;;
41709;SDS011;59402;48.396;-4.472;2023-07-08T01:34:39;10.88;;;3.53;;
41709;SDS011;59402;48.396;-4.472;2023-07-08T01:37:04;13.30;;;3.85;;
41709;SDS011;59402;48.396;-4.472;2023-07-08T01:39:32;15.03;;;3.83;;
41709;SDS011;59402;48.396;-4.472;2023-07-08T01:41:58;13.43;;;3.90;;
41709;SDS011;59402;48.396;-4.472;2023-07-08T01:44:30;15.70;;;4.10;;
41709;SDS011;59402;48.396;-4.472;2023-07-08T01:47:19;10.13;;;3.58;;
41709;SDS011;59402;48.396;-4.472;2023-07-08T01:49:42;14.93;;;4.13;;
41709;SDS011;59402;48.396;-4.472;2023-07-08T01:52:08;9.38;;;3.20;;
41709;SDS011;59402;48.396;-4.472;2023-07-08T01:54:34;11.95;;;3.60;;
41709;SDS011;59402;48.396;-4.472;2023-07-08T01:56:59;10.20;;;3.80;;
41709;SDS011;59402;48.396;-4.472;2023-07-08T01:59:25;13.55;;;3.35;;
41709;SDS011;59402;48.396;-4.472;2023-07-08T02:01:51;10.10;;;3.53;;
41709;SDS011;59402;48.396;-4.472;2023-07-08T02:04:20;10.90;;;3.58;;
41709;SDS011;59402;48.396;-4.472;2023-07-08T02:06:50;9.65;;;3.40;;
41709;SDS011;59402;48.396;-4.472;2023-07-08T02:09:16;10.30;;;3.53;;
41709;SDS011;59402;48.396;-4.472;2023-07-08T02:11:41;10.10;;;3.40;;
41709;SDS011;59402;48.396;-4.472;2023-07-08T02:14:06;11.85;;;3.25;;
41709;SDS011;59402;48.396;-4.472;2023-07-08T02:16:32;12.95;;;3.13;;
41709;SDS011;59402;48.396;-4.472;2023-07-08T02:18:57;11.85;;;4.10;;
41709;SDS011;59402;48.396;-4.472;2023-07-08T02:21:24;10.20;;;3.92;;
41709;SDS011;59402;48.396;-4.472;2023-07-08T02:23:50;13.93;;;3.75;;
41709;SDS011;59402;48.396;-4.472;2023-07-08T02:26:16;9.48;;;2.80;;
41709;SDS011;59402;48.396;-4.472;2023-07-08T02:28:42;10.38;;;3.08;;
41709;SDS011;59402;48.396;-4.472;2023-07-08T02:31:07;9.20;;;3.13;;
41709;SDS011;59402;48.396;-4.472;2023-07-08T02:33:32;9.85;;;2.80;;
41709;SDS011;59402;48.396;-4.472;2023-07-08T02:35:58;11.05;;;3.50;;
41709;SDS011;59402;48.396;-4.472;2023-07-08T02:38:25;9.90;;;2.97;;
41709;SDS011;59402;48.396;-4.472;2023-07-08T02:40:50;9.18;;;3.28;;
41709;SDS011;59402;48.396;-4.472;2023-07-08T02:43:16;11.27;;;3.35;;
41709;SDS011;59402;48.396;-4.472;2023-07-08T02:45:41;10.48;;;3.20;;
41709;SDS011;59402;48.396;-4.472;2023-07-08T02:48:07;15.35;;;3.80;;
41709;SDS011;59402;48.396;-4.472;2023-07-08T02:50:32;10.43;;;3.05;;
41709;SDS011;59402;48.396;-4.472;2023-07-08T02:52:57;10.93;;;3.03;;
41709;SDS011;59402;48.396;-4.472;2023-07-08T02:55:22;11.48;;;3.78;;
41709;SDS011;59402;48.396;-4.472;2023-07-08T02:57:48;13.65;;;3.65;;
41709;SDS011;59402;48.396;-4.472;2023-07-08T03:00:14;15.15;;;3.88;;
41709;SDS011;59402;48.396;-4.472;2023-07-08T03:02:40;9.73;;;2.88;;
41709;SDS011;59402;48.396;-4.472;2023-07-08T03:05:05;12.77;;;3.63;;
41709;SDS011;59402;48.396;-4.472;2023-07-08T03:07:30;10.30;;;3.22;;
41709;SDS011;59402;48.396;-4.472;2023-07-08T03:09:56;11.73;;;3.20;;
41709;SDS011;59402;48.396;-4.472;2023-07-08T03:12:22;12.82;;;4.57;;
41709;SDS011;59402;48.396;-4.472;2023-07-08T03:14:47;11.68;;;3.40;;
41709;SDS011;59402;48.396;-4.472;2023-07-08T03:17:13;14.40;;;3.50;;
41709;SDS011;59402;48.396;-4.472;2023-07-08T03:19:38;10.45;;;3.53;;
41709;SDS011;59402;48.396;-4.472;2023-07-08T03:22:04;11.98;;;3.20;;
41709;SDS011;59402;48.396;-4.472;2023-07-08T03:24:30;16.75;;;3.58;;
41709;SDS011;59402;48.396;-4.472;2023-07-08T03:26:58;12.20;;;3.00;;
41709;SDS011;59402;48.396;-4.472;2023-07-08T03:29:25;9.43;;;3.03;;
41709;SDS011;59402;48.396;-4.472;2023-07-08T03:31:51;12.75;;;3.58;;
41709;SDS011;59402;48.396;-4.472;2023-07-08T03:34:17;11.88;;;2.97;;
41709;SDS011;59402;48.396;-4.472;2023-07-08T03:36:47;10.85;;;3.03;;
41709;SDS011;59402;48.396;-4.472;2023-07-08T03:39:17;11.75;;;3.58;;
41709;SDS011;59402;48.396;-4.472;2023-07-08T03:41:43;12.60;;;3.50;;
41709;SDS011;59402;48.396;-4.472;2023-07-08T03:44:09;12.60;;;3.33;;
41709;SDS011;59402;48.396;-4.472;2023-07-08T03:46:34;16.17;;;4.05;;
41709;SDS011;59402;48.396;-4.472;2023-07-08T03:49:01;14.93;;;3.67;;
41709;SDS011;59402;48.396;-4.472;2023-07-08T03:51:27;17.52;;;3.92;;
41709;SDS011;59402;48.396;-4.472;2023-07-08T03:53:53;13.95;;;3.75;;
41709;SDS011;59402;48.396;-4.472;2023-07-08T03:56:21;15.82;;;3.67;;
41709;SDS011;59402;48.396;-4.472;2023-07-08T03:58:46;12.65;;;4.05;;
41709;SDS011;59402;48.396;-4.472;2023-07-08T04:01:13;13.82;;;3.30;;
41709;SDS011;59402;48.396;-4.472;2023-07-08T04:03:40;11.90;;;3.60;;
41709;SDS011;59402;48.396;-4.472;2023-07-08T04:06:06;13.82;;;3.38;;
41709;SDS011;59402;48.396;-4.472;2023-07-08T04:08:31;10.43;;;3.63;;
41709;SDS011;59402;48.396;-4.472;2023-07-08T04:10:56;15.77;;;3.90;;
41709;SDS011;59402;48.396;-4.472;2023-07-08T04:13:22;12.02;;;3.40;;
41709;SDS011;59402;48.396;-4.472;2023-07-08T04:15:50;12.40;;;3.20;;
41709;SDS011;59402;48.396;-4.472;2023-07-08T04:18:16;16.42;;;3.35;;
41709;SDS011;59402;48.396;-4.472;2023-07-08T04:20:41;14.07;;;3.63;;
41709;SDS011;59402;48.396;-4.472;2023-07-08T04:23:07;10.48;;;3.17;;
41709;SDS011;59402;48.396;-4.472;2023-07-08T04:25:32;12.93;;;3.67;;
41709;SDS011;59402;48.396;-4.472;2023-07-08T04:27:57;12.10;;;3.28;;
41709;SDS011;59402;48.396;-4.472;2023-07-08T04:30:23;13.98;;;3.72;;
41709;SDS011;59402;48.396;-4.472;2023-07-08T04:32:49;14.98;;;3.97;;
41709;SDS011;59402;48.396;-4.472;2023-07-08T04:35:15;13.35;;;3.40;;
41709;SDS011;59402;48.396;-4.472;2023-07-08T04:37:40;17.33;;;3.65;;
41709;SDS011;59402;48.396;-4.472;2023-07-08T04:40:07;14.13;;;3.45;;
41709;SDS011;59402;48.396;-4.472;2023-07-08T04:42:35;15.38;;;4.18;;
41709;SDS011;59402;48.396;-4.472;2023-07-08T04:45:01;19.10;;;4.10;;
41709;SDS011;59402;48.396;-4.472;2023-07-08T04:47:29;15.32;;;3.70;;
41709;SDS011;59402;48.396;-4.472;2023-07-08T04:49:54;14.43;;;3.05;;
41709;SDS011;59402;48.396;-4.472;2023-07-08T04:52:20;15.10;;;3.50;;
41709;SDS011;59402;48.396;-4.472;2023-07-08T04:54:45;14.48;;;3.78;;
41709;SDS011;59402;48.396;-4.472;2023-07-08T04:57:11;17.13;;;3.97;;
41709;SDS011;59402;48.396;-4.472;2023-07-08T04:59:36;13.55;;;3.42;;
41709;SDS011;59402;48.396;-4.472;2023-07-08T05:02:02;16.27;;;3.95;;
41709;SDS011;59402;48.396;-4.472;2023-07-08T05:04:27;16.40;;;4.05;;
41709;SDS011;59402;48.396;-4.472;2023-07-08T05:06:52;13.65;;;3.97;;
41709;SDS011;59402;48.396;-4.472;2023-07-08T05:09:18;12.98;;;3.47;;
41709;SDS011;59402;48.396;-4.472;2023-07-08T05:11:43;17.23;;;3.80;;
41709;SDS011;59402;48.396;-4.472;2023-07-08T05:14:10;16.25;;;3.63;;
41709;SDS011;59402;48.396;-4.472;2023-07-08T05:16:36;17.70;;;4.32;;
41709;SDS011;59402;48.396;-4.472;2023-07-08T05:19:01;13.68;;;3.75;;
41709;SDS011;59402;48.396;-4.472;2023-07-08T05:21:28;18.02;;;4.25;;
41709;SDS011;59402;48.396;-4.472;2023-07-08T05:23:54;15.15;;;3.72;;
41709;SDS011;59402;48.396;-4.472;2023-07-08T05:26:19;17.33;;;3.75;;
41709;SDS011;59402;48.396;-4.472;2023-07-08T05:28:45;19.45;;;3.63;;
41709;SDS011;59402;48.396;-4.472;2023-07-08T05:31:10;19.15;;;4.43;;
41709;SDS011;59402;48.396;-4.472;2023-07-08T05:33:36;12.32;;;3.88;;
41709;SDS011;59402;48.396;-4.472;2023-07-08T05:36:01;14.18;;;3.58;;
41709;SDS011;59402;48.396;-4.472;2023-07-08T05:38:27;17.05;;;3.60;;
41709;SDS011;59402;48.396;-4.472;2023-07-08T05:40:56;12.63;;;3.72;;
41709;SDS011;59402;48.396;-4.472;2023-07-08T05:43:22;13.63;;;3.53;;
41709;SDS011;59402;48.396;-4.472;2023-07-08T05:45:47;15.18;;;4.20;;
41709;SDS011;59402;48.396;-4.472;2023-07-08T05:48:12;18.77;;;4.00;;
41709;SDS011;59402;48.396;-4.472;2023-07-08T05:50:38;12.55;;;3.20;;
41709;SDS011;59402;48.396;-4.472;2023-07-08T05:53:04;15.00;;;3.30;;
41709;SDS011;59402;48.396;-4.472;2023-07-08T05:55:30;14.57;;;3.67;;
41709;SDS011;59402;48.396;-4.472;2023-07-08T05:57:56;14.82;;;4.70;;
41709;SDS011;59402;48.396;-4.472;2023-07-08T06:00:21;14.52;;;4.35;;
41709;SDS011;59402;48.396;-4.472;2023-07-08T06:02:46;14.32;;;3.38;;
41709;SDS011;59402;48.396;-4.472;2023-07-08T06:05:11;14.75;;;3.53;;
41709;SDS011;59402;48.396;-4.472;2023-07-08T06:07:37;17.05;;;3.72;;
41709;SDS011;59402;48.396;-4.472;2023-07-08T06:10:02;16.05;;;3.80;;
41709;SDS011;59402;48.396;-4.472;2023-07-08T06:12:29;13.10;;;3.20;;
41709;SDS011;59402;48.396;-4.472;2023-07-08T06:14:55;17.67;;;4.05;;
41709;SDS011;59402;48.396;-4.472;2023-07-08T06:17:20;14.60;;;3.70;;
41709;SDS011;59402;48.396;-4.472;2023-07-08T06:19:46;13.43;;;3.22;;
41709;SDS011;59402;48.396;-4.472;2023-07-08T06:22:11;14.15;;;3.25;;
41709;SDS011;59402;48.396;-4.472;2023-07-08T06:24:36;12.05;;;2.92;;
41709;SDS011;59402;48.396;-4.472;2023-07-08T06:27:02;11.40;;;2.85;;
41709;SDS011;59402;48.396;-4.472;2023-07-08T06:29:27;15.60;;;3.45;;
41709;SDS011;59402;48.396;-4.472;2023-07-08T06:31:52;11.07;;;3.20;;
41709;SDS011;59402;48.396;-4.472;2023-07-08T06:34:18;9.73;;;3.00;;
41709;SDS011;59402;48.396;-4.472;2023-07-08T06:36:44;12.82;;;3.60;;
41709;SDS011;59402;48.396;-4.472;2023-07-08T06:39:09;15.48;;;4.40;;
41709;SDS011;59402;48.396;-4.472;2023-07-08T06:41:36;9.65;;;2.90;;
41709;SDS011;59402;48.396;-4.472;2023-07-08T06:44:02;15.65;;;3.45;;
41709;SDS011;59402;48.396;-4.472;2023-07-08T06:46:30;12.90;;;3.35;;
41709;SDS011;59402;48.396;-4.472;2023-07-08T06:48:56;13.38;;;3.30;;
41709;SDS011;59402;48.396;-4.472;2023-07-08T06:51:21;11.65;;;3.25;;
41709;SDS011;59402;48.396;-4.472;2023-07-08T06:53:46;13.77;;;3.35;;
41709;SDS011;59402;48.396;-4.472;2023-07-08T06:56:12;15.50;;;3.10;;
41709;SDS011;59402;48.396;-4.472;2023-07-08T06:58:37;13.98;;;3.17;;
41709;SDS011;59402;48.396;-4.472;2023-07-08T07:01:03;15.30;;;3.22;;
41709;SDS011;59402;48.396;-4.472;2023-07-08T07:03:28;12.25;;;3.35;;
41709;SDS011;59402;48.396;-4.472;2023-07-08T07:05:53;16.25;;;3.47;;
41709;SDS011;59402;48.396;-4.472;2023-07-08T07:08:19;18.98;;;4.35;;
41709;SDS011;59402;48.396;-4.472;2023-07-08T07:10:44;24.35;;;4.90;;
41709;SDS011;59402;48.396;-4.472;2023-07-08T07:13:09;19.38;;;4.53;;
41709;SDS011;59402;48.396;-4.472;2023-07-08T07:15:35;21.70;;;4.55;;
41709;SDS011;59402;48.396;-4.472;2023-07-08T07:18:00;28.80;;;5.25;;
41709;SDS011;59402;48.396;-4.472;2023-07-08T07:20:26;23.52;;;4.80;;
41709;SDS011;59402;48.396;-4.472;2023-07-08T07:22:52;22.27;;;4.88;;
41709;SDS011;59402;48.396;-4.472;2023-07-08T07:25:17;26.55;;;5.53;;
41709;SDS011;59402;48.396;-4.472;2023-07-08T07:27:42;19.15;;;4.18;;
41709;SDS011;59402;48.396;-4.472;2023-07-08T07:30:08;23.73;;;4.00;;
41709;SDS011;59402;48.396;-4.472;2023-07-08T07:32:38;26.50;;;4.57;;
41709;SDS011;59402;48.396;-4.472;2023-07-08T07:35:03;22.95;;;4.60;;
41709;SDS011;59402;48.396;-4.472;2023-07-08T07:37:29;23.23;;;5.30;;
41709;SDS011;59402;48.396;-4.472;2023-07-08T07:39:54;24.00;;;4.20;;
41709;SDS011;59402;48.396;-4.472;2023-07-08T07:42:19;32.65;;;6.20;;
41709;SDS011;59402;48.396;-4.472;2023-07-08T07:44:45;33.90;;;6.32;;
41709;SDS011;59402;48.396;-4.472;2023-07-08T07:47:10;24.58;;;5.07;;
41709;SDS011;59402;48.396;-4.472;2023-07-08T07:49:36;22.60;;;4.63;;
41709;SDS011;59402;48.396;-4.472;2023-07-08T07:52:01;35.35;;;5.13;;
41709;SDS011;59402;48.396;-4.472;2023-07-08T07:54:27;32.85;;;5.45;;
41709;SDS011;59402;48.396;-4.472;2023-07-08T07:56:52;30.42;;;5.03;;
41709;SDS011;59402;48.396;-4.472;2023-07-08T07:59:18;22.20;;;4.30;;
41709;SDS011;59402;48.396;-4.472;2023-07-08T08:01:43;27.77;;;5.47;;
41709;SDS011;59402;48.396;-4.472;2023-07-08T08:04:11;27.33;;;5.57;;
41709;SDS011;59402;48.396;-4.472;2023-07-08T08:06:37;27.50;;;4.53;;
41709;SDS011;59402;48.396;-4.472;2023-07-08T08:09:03;25.15;;;8.38;;
41709;SDS011;59402;48.396;-4.472;2023-07-08T08:11:28;28.75;;;6.20;;
41709;SDS011;59402;48.396;-4.472;2023-07-08T08:13:53;24.98;;;5.60;;
41709;SDS011;59402;48.396;-4.472;2023-07-08T08:16:19;29.17;;;5.55;;
41709;SDS011;59402;48.396;-4.472;2023-07-08T08:18:45;23.60;;;6.60;;
41709;SDS011;59402;48.396;-4.472;2023-07-08T08:21:10;26.67;;;10.02;;
41709;SDS011;59402;48.396;-4.472;2023-07-08T08:23:35;29.75;;;6.05;;
41709;SDS011;59402;48.396;-4.472;2023-07-08T08:26:01;25.23;;;5.03;;
41709;SDS011;59402;48.396;-4.472;2023-07-08T08:28:26;26.52;;;4.85;;
41709;SDS011;59402;48.396;-4.472;2023-07-08T08:30:52;23.15;;;4.63;;
41709;SDS011;59402;48.396;-4.472;2023-07-08T08:33:17;21.38;;;4.80;;
41709;SDS011;59402;48.396;-4.472;2023-07-08T08:35:43;31.65;;;4.80;;
41709;SDS011;59402;48.396;-4.472;2023-07-08T08:38:08;26.00;;;4.63;;
41709;SDS011;59402;48.396;-4.472;2023-07-08T08:40:34;27.90;;;4.70;;
41709;SDS011;59402;48.396;-4.472;2023-07-08T08:43:03;22.00;;;4.43;;
41709;SDS011;59402;48.396;-4.472;2023-07-08T08:45:32;22.50;;;4.53;;
41709;SDS011;59402;48.396;-4.472;2023-07-08T08:48:01;34.42;;;5.05;;
41709;SDS011;59402;48.396;-4.472;2023-07-08T08:52:59;23.13;;;4.10;;
41709;SDS011;59402;48.396;-4.472;2023-07-08T08:55:25;22.70;;;4.82;;
41709;SDS011;59402;48.396;-4.472;2023-07-08T09:03:08;27.83;;;5.15;;
41709;SDS011;59402;48.396;-4.472;2023-07-08T09:05:35;31.25;;;5.30;;
41709;SDS011;59402;48.396;-4.472;2023-07-08T09:10:45;19.50;;;3.83;;
41709;SDS011;59402;48.396;-4.472;2023-07-08T09:13:15;19.05;;;4.00;;
41709;SDS011;59402;48.396;-4.472;2023-07-08T09:15:42;15.85;;;3.08;;
41709;SDS011;59402;48.396;-4.472;2023-07-08T09:18:14;16.58;;;3.35;;
41709;SDS011;59402;48.396;-4.472;2023-07-08T09:20:42;16.98;;;3.25;;
41709;SDS011;59402;48.396;-4.472;2023-07-08T09:25:35;16.17;;;2.88;;
41709;SDS011;59402;48.396;-4.472;2023-07-08T09:28:02;12.15;;;2.72;;
41709;SDS011;59402;48.396;-4.472;2023-07-08T09:30:28;13.95;;;3.38;;
41709;SDS011;59402;48.396;-4.472;2023-07-08T09:32:56;16.65;;;3.13;;
41709;SDS011;59402;48.396;-4.472;2023-07-08T09:35:26;15.15;;;3.53;;
41709;SDS011;59402;48.396;-4.472;2023-07-08T09:37:52;17.52;;;3.40;;
41709;SDS011;59402;48.396;-4.472;2023-07-08T09:40:19;16.98;;;3.25;;
41709;SDS011;59402;48.396;-4.472;2023-07-08T09:42:46;14.27;;;3.22;;
41709;SDS011;59402;48.396;-4.472;2023-07-08T09:45:16;18.70;;;2.88;;
41709;SDS011;59402;48.396;-4.472;2023-07-08T09:47:43;18.85;;;3.55;;
41709;SDS011;59402;48.396;-4.472;2023-07-08T09:50:26;16.20;;;2.83;;
41709;SDS011;59402;48.396;-4.472;2023-07-08T09:52:53;15.60;;;3.22;;
41709;SDS011;59402;48.396;-4.472;2023-07-08T09:55:19;22.30;;;3.55;;
41709;SDS011;59402;48.396;-4.472;2023-07-08T09:57:45;15.80;;;3.30;;
41709;SDS011;59402;48.396;-4.472;2023-07-08T10:00:13;18.23;;;3.58;;
41709;SDS011;59402;48.396;-4.472;2023-07-08T10:05:13;14.45;;;2.92;;
41709;SDS011;59402;48.396;-4.472;2023-07-08T10:07:39;13.80;;;2.83;;
41709;SDS011;59402;48.396;-4.472;2023-07-08T10:10:06;18.02;;;3.20;;
41709;SDS011;59402;48.396;-4.472;2023-07-08T10:12:33;14.77;;;3.05;;
41709;SDS011;59402;48.396;-4.472;2023-07-08T10:15:00;19.45;;;3.70;;
41709;SDS011;59402;48.396;-4.472;2023-07-08T10:17:28;15.50;;;2.90;;
41709;SDS011;59402;48.396;-4.472;2023-07-08T10:19:55;18.25;;;3.28;;
41709;SDS011;59402;48.396;-4.472;2023-07-08T10:27:27;19.77;;;3.97;;
41709;SDS011;59402;48.396;-4.472;2023-07-08T10:37:38;21.90;;;3.40;;
41709;SDS011;59402;48.396;-4.472;2023-07-08T10:45:16;20.63;;;3.95;;
41709;SDS011;59402;48.396;-4.472;2023-07-08T10:58:24;13.98;;;3.17;;
41709;SDS011;59402;48.396;-4.472;2023-07-08T11:06:26;22.20;;;3.65;;
41709;SDS011;59402;48.396;-4.472;2023-07-08T11:08:53;19.70;;;3.55;;
41709;SDS011;59402;48.396;-4.472;2023-07-08T11:13:47;18.75;;;3.63;;
41709;SDS011;59402;48.396;-4.472;2023-07-08T11:16:22;13.07;;;3.00;;
41709;SDS011;59402;48.396;-4.472;2023-07-08T11:21:16;14.52;;;3.25;;
41709;SDS011;59402;48.396;-4.472;2023-07-08T11:23:50;18.55;;;3.47;;
41709;SDS011;59402;48.396;-4.472;2023-07-08T11:28:47;21.05;;;3.83;;
41709;SDS011;59402;48.396;-4.472;2023-07-08T11:31:14;26.33;;;4.18;;
41709;SDS011;59402;48.396;-4.472;2023-07-08T11:33:40;17.40;;;4.05;;
41709;SDS011;59402;48.396;-4.472;2023-07-08T11:36:06;18.05;;;3.40;;
41709;SDS011;59402;48.396;-4.472;2023-07-08T11:38:33;16.83;;;3.47;;
41709;SDS011;59402;48.396;-4.472;2023-07-08T11:41:18;22.87;;;3.93;;
41709;SDS011;59402;48.396;-4.472;2023-07-08T11:43:46;21.85;;;4.32;;
41709;SDS011;59402;48.396;-4.472;2023-07-08T11:46:14;24.77;;;4.68;;
41709;SDS011;59402;48.396;-4.472;2023-07-08T11:48:42;22.33;;;4.63;;
41709;SDS011;59402;48.396;-4.472;2023-07-08T11:51:08;22.15;;;4.28;;
41709;SDS011;59402;48.396;-4.472;2023-07-08T11:53:50;19.13;;;3.88;;
41709;SDS011;59402;48.396;-4.472;2023-07-08T11:56:24;24.02;;;4.68;;
41709;SDS011;59402;48.396;-4.472;2023-07-08T12:03:47;19.75;;;4.10;;
41709;SDS011;59402;48.396;-4.472;2023-07-08T12:08:52;17.73;;;4.13;;
41709;SDS011;59402;48.396;-4.472;2023-07-08T12:11:17;21.98;;;3.92;;
41709;SDS011;59402;48.396;-4.472;2023-07-08T12:13:42;15.13;;;3.25;;
41709;SDS011;59402;48.396;-4.472;2023-07-08T12:16:09;20.23;;;3.60;;
41709;SDS011;59402;48.396;-4.472;2023-07-08T12:18:36;12.68;;;3.00;;
41709;SDS011;59402;48.396;-4.472;2023-07-08T12:21:04;14.23;;;3.80;;
41709;SDS011;59402;48.396;-4.472;2023-07-08T12:23:29;17.70;;;3.40;;
41709;SDS011;59402;48.396;-4.472;2023-07-08T12:25:55;11.55;;;2.75;;
41709;SDS011;59402;48.396;-4.472;2023-07-08T12:28:21;13.30;;;2.92;;
41709;SDS011;59402;48.396;-4.472;2023-07-08T12:30:47;19.92;;;3.30;;
41709;SDS011;59402;48.396;-4.472;2023-07-08T12:33:13;14.45;;;2.53;;
41709;SDS011;59402;48.396;-4.472;2023-07-08T12:35:39;11.50;;;2.63;;
41709;SDS011;59402;48.396;-4.472;2023-07-08T12:38:26;13.95;;;2.97;;
41709;SDS011;59402;48.396;-4.472;2023-07-08T12:40:53;15.07;;;3.10;;
41709;SDS011;59402;48.396;-4.472;2023-07-08T12:43:19;12.82;;;3.10;;
41709;SDS011;59402;48.396;-4.472;2023-07-08T12:45:45;15.68;;;2.88;;
41709;SDS011;59402;48.396;-4.472;2023-07-08T12:48:10;13.55;;;2.55;;
41709;SDS011;59402;48.396;-4.472;2023-07-08T12:50:36;15.88;;;2.95;;
41709;SDS011;59402;48.396;-4.472;2023-07-08T12:53:04;8.85;;;2.80;;
41709;SDS011;59402;48.396;-4.472;2023-07-08T12:55:34;17.00;;;3.10;;
41709;SDS011;59402;48.396;-4.472;2023-07-08T12:58:00;17.48;;;3.53;;
41709;SDS011;59402;48.396;-4.472;2023-07-08T13:00:27;13.50;;;3.05;;
41709;SDS011;59402;48.396;-4.472;2023-07-08T13:05:18;16.83;;;3.27;;
41709;SDS011;59402;48.396;-4.472;2023-07-08T13:07:43;14.82;;;3.08;;
41709;SDS011;59402;48.396;-4.472;2023-07-08T13:10:15;15.35;;;2.92;;
41709;SDS011;59402;48.396;-4.472;2023-07-08T13:12:41;14.93;;;3.13;;
41709;SDS011;59402;48.396;-4.472;2023-07-08T13:15:10;14.30;;;3.10;;
41709;SDS011;59402;48.396;-4.472;2023-07-08T13:17:38;14.50;;;2.70;;
41709;SDS011;59402;48.396;-4.472;2023-07-08T13:20:07;12.05;;;2.78;;
41709;SDS011;59402;48.396;-4.472;2023-07-08T13:22:34;15.57;;;3.05;;
41709;SDS011;59402;48.396;-4.472;2023-07-08T13:25:00;20.10;;;3.03;;
41709;SDS011;59402;48.396;-4.472;2023-07-08T13:27:26;13.98;;;3.00;;
41709;SDS011;59402;48.396;-4.472;2023-07-08T13:29:52;12.85;;;2.70;;
41709;SDS011;59402;48.396;-4.472;2023-07-08T13:32:17;17.35;;;3.40;;
41709;SDS011;59402;48.396;-4.472;2023-07-08T13:34:43;17.23;;;3.67;;
41709;SDS011;59402;48.396;-4.472;2023-07-08T13:37:09;14.38;;;3.50;;
41709;SDS011;59402;48.396;-4.472;2023-07-08T13:39:35;16.05;;;3.03;;
41709;SDS011;59402;48.396;-4.472;2023-07-08T13:42:02;16.85;;;3.53;;
41709;SDS011;59402;48.396;-4.472;2023-07-08T13:44:27;14.30;;;2.97;;
41709;SDS011;59402;48.396;-4.472;2023-07-08T13:46:54;13.82;;;3.20;;
41709;SDS011;59402;48.396;-4.472;2023-07-08T13:49:23;14.13;;;2.78;;
41709;SDS011;59402;48.396;-4.472;2023-07-08T13:51:49;15.68;;;2.88;;
41709;SDS011;59402;48.396;-4.472;2023-07-08T13:56:40;12.70;;;3.53;;
41709;SDS011;59402;48.396;-4.472;2023-07-08T13:59:07;11.52;;;2.72;;
41709;SDS011;59402;48.396;-4.472;2023-07-08T14:01:33;12.50;;;2.72;;
41709;SDS011;59402;48.396;-4.472;2023-07-08T14:03:59;11.55;;;3.03;;
41709;SDS011;59402;48.396;-4.472;2023-07-08T14:06:35;12.60;;;2.75;;
41709;SDS011;59402;48.396;-4.472;2023-07-08T14:09:13;11.88;;;2.70;;
41709;SDS011;59402;48.396;-4.472;2023-07-08T14:11:39;10.90;;;2.60;;
41709;SDS011;59402;48.396;-4.472;2023-07-08T14:14:05;12.80;;;2.75;;
41709;SDS011;59402;48.396;-4.472;2023-07-08T14:16:31;10.88;;;2.88;;
41709;SDS011;59402;48.396;-4.472;2023-07-08T14:18:58;10.50;;;2.67;;
41709;SDS011;59402;48.396;-4.472;2023-07-08T14:21:24;10.70;;;2.50;;
41709;SDS011;59402;48.396;-4.472;2023-07-08T14:23:50;14.82;;;2.40;;
41709;SDS011;59402;48.396;-4.472;2023-07-08T14:26:15;17.58;;;3.42;;
41709;SDS011;59402;48.396;-4.472;2023-07-08T14:28:40;14.70;;;2.95;;
41709;SDS011;59402;48.396;-4.472;2023-07-08T14:31:09;8.88;;;2.38;;
41709;SDS011;59402;48.396;-4.472;2023-07-08T14:33:35;14.50;;;2.63;;
41709;SDS011;59402;48.396;-4.472;2023-07-08T14:36:00;10.98;;;2.80;;
41709;SDS011;59402;48.396;-4.472;2023-07-08T14:38:26;10.35;;;2.42;;
41709;SDS011;59402;48.396;-4.472;2023-07-08T14:40:51;9.70;;;2.45;;
41709;SDS011;59402;48.396;-4.472;2023-07-08T14:43:17;14.85;;;2.97;;
41709;SDS011;59402;48.396;-4.472;2023-07-08T14:45:50;14.02;;;3.25;;
41709;SDS011;59402;48.396;-4.472;2023-07-08T14:48:17;12.63;;;2.47;;
41709;SDS011;59402;48.396;-4.472;2023-07-08T14:50:42;11.85;;;3.05;;
41709;SDS011;59402;48.396;-4.472;2023-07-08T14:53:08;14.88;;;3.38;;
41709;SDS011;59402;48.396;-4.472;2023-07-08T14:55:33;14.48;;;2.90;;
41709;SDS011;59402;48.396;-4.472;2023-07-08T14:57:59;8.70;;;2.40;;
41709;SDS011;59402;48.396;-4.472;2023-07-08T15:00:25;11.30;;;2.10;;
41709;SDS011;59402;48.396;-4.472;2023-07-08T15:02:50;12.55;;;2.50;;
41709;SDS011;59402;48.396;-4.472;2023-07-08T15:05:17;12.48;;;2.42;;
41709;SDS011;59402;48.396;-4.472;2023-07-08T15:10:08;10.10;;;2.63;;
41709;SDS011;59402;48.396;-4.472;2023-07-08T15:12:34;12.70;;;2.65;;
41709;SDS011;59402;48.396;-4.472;2023-07-08T15:15:00;9.45;;;2.58;;
41709;SDS011;59402;48.396;-4.472;2023-07-08T15:17:25;10.65;;;2.25;;
41709;SDS011;59402;48.396;-4.472;2023-07-08T15:19:50;10.40;;;2.78;;
41709;SDS011;59402;48.396;-4.472;2023-07-08T15:22:16;11.65;;;2.60;;
41709;SDS011;59402;48.396;-4.472;2023-07-08T15:24:41;10.75;;;2.53;;
41709;SDS011;59402;48.396;-4.472;2023-07-08T15:27:09;11.45;;;2.50;;
41709;SDS011;59402;48.396;-4.472;2023-07-08T15:29:35;10.23;;;2.42;;
41709;SDS011;59402;48.396;-4.472;2023-07-08T15:32:01;10.90;;;2.30;;
41709;SDS011;59402;48.396;-4.472;2023-07-08T15:34:26;12.55;;;3.05;;
41709;SDS011;59402;48.396;-4.472;2023-07-08T15:36:52;12.13;;;2.72;;